createdAt,value
2023-03-26T00:00:11.253Z,277.67
2023-03-26T00:01:11.309Z,279.09
2023-03-26T00:02:11.258Z,276.04
2023-03-26T00:03:11.405Z,275.35
2023-03-26T00:04:11.298Z,274.65
2023-03-26T00:05:11.230Z,275.35
2023-03-26T00:06:11.170Z,273.97
2023-03-26T00:07:11.266Z,273.51
2023-03-26T00:08:11.170Z,271.70
2023-03-26T00:09:11.156Z,270.80
2023-03-26T00:10:11.121Z,272.83
2023-03-26T00:11:11.117Z,273.05
2023-03-26T00:12:11.106Z,271.47
2023-03-26T00:13:11.142Z,272.60
2023-03-26T00:14:11.088Z,272.15
2023-03-26T00:15:11.118Z,272.60
2023-03-26T00:16:11.110Z,273.97
2023-03-26T00:17:11.068Z,272.15
2023-03-26T00:18:11.112Z,273.97
2023-03-26T00:19:11.044Z,272.15
2023-03-26T00:20:11.019Z,272.60
2023-03-26T00:21:11.070Z,273.05
2023-03-26T00:22:11.020Z,272.83
2023-03-26T00:23:11.081Z,273.28
2023-03-26T00:24:11.011Z,272.15
2023-03-26T00:25:10.974Z,273.51
2023-03-26T00:26:10.970Z,273.74
2023-03-26T00:27:10.963Z,275.81
2023-03-26T00:28:10.997Z,274.42
2023-03-26T00:29:11.022Z,272.60
2023-03-26T00:30:10.919Z,273.51
2023-03-26T00:31:10.962Z,272.15
2023-03-26T00:32:10.915Z,273.05
2023-03-26T00:33:10.932Z,270.35
2023-03-26T00:34:10.924Z,270.13
2023-03-26T00:35:10.882Z,271.47
2023-03-26T00:36:10.896Z,272.15
2023-03-26T00:37:10.832Z,270.35
2023-03-26T00:38:10.830Z,269.69
2023-03-26T00:39:10.835Z,269.69
2023-03-26T00:40:10.835Z,269.69
2023-03-26T00:41:10.834Z,269.02
2023-03-26T00:42:10.856Z,268.58
2023-03-26T00:43:10.837Z,267.49
2023-03-26T00:44:10.815Z,263.62
2023-03-26T00:45:10.747Z,268.14
2023-03-26T00:46:10.808Z,267.93
2023-03-26T00:47:10.748Z,265.97
2023-03-26T00:48:10.799Z,266.84
2023-03-26T00:49:11.176Z,264.26
2023-03-26T00:50:10.726Z,265.54
2023-03-26T00:51:10.731Z,266.62
2023-03-26T00:52:10.717Z,267.27
2023-03-26T00:53:10.775Z,266.19
2023-03-26T00:54:10.645Z,265.54
2023-03-26T00:55:10.738Z,266.62
2023-03-26T00:56:10.708Z,266.19
2023-03-26T00:57:10.724Z,266.19
2023-03-26T00:58:10.647Z,266.19
2023-03-26T00:59:10.737Z,266.62
2023-03-26T01:00:10.659Z,264.68
2023-03-26T01:01:10.765Z,265.11
2023-03-26T01:02:10.750Z,265.76
2023-03-26T01:03:10.670Z,265.54
2023-03-26T01:04:10.665Z,264.26
2023-03-26T01:05:10.590Z,266.40
2023-03-26T01:06:10.558Z,266.19
2023-03-26T01:07:10.555Z,264.47
2023-03-26T01:08:10.639Z,267.27
2023-03-26T01:09:10.520Z,265.97
2023-03-26T01:10:10.674Z,265.54
2023-03-26T01:11:10.539Z,265.76
2023-03-26T01:12:10.552Z,268.36
2023-03-26T01:13:10.452Z,267.27
2023-03-26T01:14:10.462Z,266.84
2023-03-26T01:15:10.472Z,269.02
2023-03-26T01:16:10.471Z,265.97
2023-03-26T01:17:10.410Z,267.49
2023-03-26T01:18:10.410Z,268.58
2023-03-26T01:19:10.448Z,267.27
2023-03-26T01:20:10.457Z,266.84
2023-03-26T01:21:10.384Z,269.02
2023-03-26T01:22:10.374Z,267.05
2023-03-26T01:23:10.371Z,266.62
2023-03-26T01:24:10.407Z,266.84
2023-03-26T01:25:10.311Z,268.80
2023-03-26T01:26:10.332Z,266.62
2023-03-26T01:27:10.327Z,268.58
2023-03-26T01:28:10.306Z,267.71
2023-03-26T01:29:10.346Z,269.02
2023-03-26T01:30:10.278Z,269.24
2023-03-26T01:31:10.270Z,267.71
2023-03-26T01:32:10.359Z,270.35
2023-03-26T01:33:10.367Z,269.24
2023-03-26T01:34:10.418Z,269.47
2023-03-26T01:35:10.263Z,269.24
2023-03-26T01:36:10.245Z,269.91
2023-03-26T01:37:10.165Z,269.47
2023-03-26T01:38:10.187Z,270.35
2023-03-26T01:39:10.642Z,270.13
2023-03-26T01:40:10.360Z,267.27
2023-03-26T01:41:10.238Z,270.13
2023-03-26T01:42:10.159Z,270.80
2023-03-26T01:43:10.175Z,270.35
2023-03-26T01:44:10.180Z,270.13
2023-03-26T01:45:10.212Z,268.14
2023-03-26T01:46:10.121Z,268.36
2023-03-26T01:47:10.119Z,269.24
2023-03-26T01:48:10.140Z,268.14
2023-03-26T01:49:10.145Z,270.35
2023-03-26T01:50:10.140Z,270.58
2023-03-26T01:51:10.108Z,267.05
2023-03-26T01:52:10.085Z,269.69
2023-03-26T01:53:10.132Z,269.02
2023-03-26T01:54:10.137Z,267.93
2023-03-26T01:55:10.061Z,269.02
2023-03-26T01:56:10.093Z,269.02
2023-03-26T01:57:10.119Z,270.13
2023-03-26T01:58:10.092Z,269.47
2023-03-26T01:59:10.074Z,270.35
2023-03-26T02:00:10.134Z,268.58
2023-03-26T02:01:10.045Z,269.24
2023-03-26T02:02:10.114Z,269.91
2023-03-26T02:03:10.029Z,269.69
2023-03-26T02:04:09.933Z,270.58
2023-03-26T02:05:09.984Z,269.91
2023-03-26T02:06:09.906Z,267.93
2023-03-26T02:07:09.912Z,270.58
2023-03-26T02:08:09.997Z,269.91
2023-03-26T02:09:09.935Z,267.93
2023-03-26T02:10:10.051Z,267.71
2023-03-26T02:11:09.913Z,269.24
2023-03-26T02:12:09.985Z,267.49
2023-03-26T02:13:10.180Z,269.24
2023-03-26T02:14:10.102Z,267.05
2023-03-26T02:15:09.979Z,269.69
2023-03-26T02:16:09.884Z,268.14
2023-03-26T02:17:09.937Z,268.58
2023-03-26T02:18:09.889Z,269.24
2023-03-26T02:19:09.844Z,270.35
2023-03-26T02:20:09.820Z,267.27
2023-03-26T02:21:09.819Z,269.02
2023-03-26T02:22:10.004Z,270.13
2023-03-26T02:23:10.298Z,267.71
2023-03-26T02:24:09.966Z,271.25
2023-03-26T02:25:09.769Z,267.71
2023-03-26T02:26:09.746Z,270.35
2023-03-26T02:27:09.773Z,267.27
2023-03-26T02:28:09.758Z,269.47
2023-03-26T02:29:09.775Z,268.36
2023-03-26T02:30:09.900Z,269.91
2023-03-26T02:31:09.927Z,272.15
2023-03-26T02:32:09.829Z,270.35
2023-03-26T02:33:10.133Z,268.58
2023-03-26T02:34:09.638Z,270.35
2023-03-26T02:35:09.810Z,270.13
2023-03-26T02:36:10.077Z,270.13
2023-03-26T02:37:09.917Z,271.25
2023-03-26T02:38:09.806Z,271.02
2023-03-26T02:39:09.602Z,269.47
2023-03-26T02:40:09.642Z,272.37
2023-03-26T02:41:09.589Z,271.92
2023-03-26T02:42:09.641Z,270.35
2023-03-26T02:43:09.618Z,270.80
2023-03-26T02:44:09.564Z,270.80
2023-03-26T02:45:09.589Z,271.70
2023-03-26T02:46:09.521Z,269.91
2023-03-26T02:47:10.120Z,271.25
2023-03-26T02:48:09.804Z,270.80
2023-03-26T02:49:09.592Z,271.70
2023-03-26T02:50:09.666Z,269.69
2023-03-26T02:51:09.569Z,269.91
2023-03-26T02:52:09.411Z,269.69
2023-03-26T02:53:09.614Z,272.15
2023-03-26T02:54:09.486Z,271.47
2023-03-26T02:55:09.446Z,270.80
2023-03-26T02:56:09.583Z,271.25
2023-03-26T02:57:09.420Z,271.70
2023-03-26T02:58:09.522Z,274.20
2023-03-26T02:59:09.448Z,274.42
2023-03-26T03:00:09.605Z,274.88
2023-03-26T03:01:09.576Z,276.27
2023-03-26T03:02:09.578Z,274.65
2023-03-26T03:03:09.914Z,276.74
2023-03-26T03:04:09.719Z,275.81
2023-03-26T03:05:09.462Z,276.04
2023-03-26T03:06:09.434Z,276.51
2023-03-26T03:07:09.227Z,276.74
2023-03-26T03:08:09.347Z,279.57
2023-03-26T03:09:09.435Z,280.29
2023-03-26T03:10:09.210Z,279.81
2023-03-26T03:11:09.295Z,279.33
2023-03-26T03:12:09.248Z,280.76
2023-03-26T03:13:09.245Z,279.33
2023-03-26T03:14:09.361Z,281.01
2023-03-26T03:15:09.194Z,282.21
2023-03-26T03:16:09.245Z,279.33
2023-03-26T03:17:09.194Z,281.97
2023-03-26T03:18:09.178Z,281.01
2023-03-26T03:19:09.208Z,282.21
2023-03-26T03:20:09.239Z,280.52
2023-03-26T03:21:09.113Z,281.49
2023-03-26T03:22:09.211Z,280.29
2023-03-26T03:23:09.132Z,280.29
2023-03-26T03:24:09.234Z,280.29
2023-03-26T03:25:09.148Z,282.46
2023-03-26T03:26:09.051Z,281.73
2023-03-26T03:27:09.041Z,279.09
2023-03-26T03:28:09.133Z,281.49
2023-03-26T03:29:09.035Z,280.76
2023-03-26T03:30:09.135Z,278.86
2023-03-26T03:31:09.342Z,281.01
2023-03-26T03:32:09.330Z,277.21
2023-03-26T03:33:09.296Z,277.67
2023-03-26T03:34:09.859Z,278.86
2023-03-26T03:35:09.351Z,278.38
2023-03-26T03:36:09.370Z,278.38
2023-03-26T03:37:10.290Z,278.15
2023-03-26T03:38:09.202Z,276.27
2023-03-26T03:39:09.003Z,277.91
2023-03-26T03:40:09.116Z,277.21
2023-03-26T03:41:09.023Z,275.35
2023-03-26T03:42:09.380Z,274.42
2023-03-26T03:43:09.193Z,275.81
2023-03-26T03:44:09.109Z,275.35
2023-03-26T03:45:08.926Z,275.81
2023-03-26T03:46:09.100Z,273.97
2023-03-26T03:47:09.029Z,274.42
2023-03-26T03:48:08.965Z,274.42
2023-03-26T03:49:08.818Z,273.51
2023-03-26T03:50:08.921Z,272.83
2023-03-26T03:51:08.978Z,273.51
2023-03-26T03:52:08.813Z,273.97
2023-03-26T03:53:08.942Z,272.83
2023-03-26T03:54:08.844Z,274.20
2023-03-26T03:55:08.898Z,273.05
2023-03-26T03:56:08.902Z,274.20
2023-03-26T03:57:09.126Z,275.35
2023-03-26T03:58:09.401Z,276.27
2023-03-26T03:59:08.983Z,275.81
2023-03-26T04:00:08.746Z,277.44
2023-03-26T04:01:08.795Z,275.35
2023-03-26T04:02:08.788Z,278.15
2023-03-26T04:03:08.882Z,276.04
2023-03-26T04:04:08.788Z,277.67
2023-03-26T04:05:08.720Z,275.81
2023-03-26T04:06:08.955Z,276.74
2023-03-26T04:07:08.705Z,280.05
2023-03-26T04:08:08.696Z,277.67
2023-03-26T04:09:08.641Z,277.21
2023-03-26T04:10:08.594Z,280.29
2023-03-26T04:11:08.640Z,278.86
2023-03-26T04:12:08.570Z,280.76
2023-03-26T04:13:08.638Z,279.09
2023-03-26T04:14:08.577Z,281.01
2023-03-26T04:15:08.658Z,282.21
2023-03-26T04:16:08.668Z,281.97
2023-03-26T04:17:08.557Z,279.09
2023-03-26T04:18:08.532Z,281.73
2023-03-26T04:19:08.595Z,281.01
2023-03-26T04:20:08.562Z,279.81
2023-03-26T04:21:08.530Z,280.29
2023-03-26T04:22:08.712Z,281.97
2023-03-26T04:23:08.595Z,283.68
2023-03-26T04:24:08.447Z,283.19
2023-03-26T04:25:08.518Z,280.76
2023-03-26T04:26:08.417Z,281.97
2023-03-26T04:27:08.494Z,280.76
2023-03-26T04:28:08.513Z,280.52
2023-03-26T04:29:08.367Z,280.52
2023-03-26T04:30:08.541Z,282.46
2023-03-26T04:31:08.425Z,280.76
2023-03-26T04:32:08.373Z,280.52
2023-03-26T04:33:08.418Z,280.52
2023-03-26T04:34:08.443Z,283.43
2023-03-26T04:35:08.336Z,282.70
2023-03-26T04:36:08.325Z,281.49
2023-03-26T04:37:08.327Z,284.42
2023-03-26T04:38:08.260Z,283.19
2023-03-26T04:39:08.250Z,283.43
2023-03-26T04:40:08.234Z,284.17
2023-03-26T04:41:08.227Z,283.92
2023-03-26T04:42:08.259Z,281.97
2023-03-26T04:43:08.316Z,283.43
2023-03-26T04:44:08.272Z,282.94
2023-03-26T04:45:08.194Z,281.49
2023-03-26T04:46:08.154Z,281.49
2023-03-26T04:47:08.167Z,280.76
2023-03-26T04:48:08.201Z,281.01
2023-03-26T04:49:08.120Z,281.97
2023-03-26T04:50:08.147Z,283.43
2023-03-26T04:51:08.121Z,282.70
2023-03-26T04:52:08.114Z,282.46
2023-03-26T04:53:08.124Z,281.49
2023-03-26T04:54:08.129Z,282.46
2023-03-26T04:55:08.075Z,280.29
2023-03-26T04:56:08.117Z,282.21
2023-03-26T04:57:08.116Z,282.46
2023-03-26T04:58:08.077Z,283.43
2023-03-26T04:59:08.170Z,282.21
2023-03-26T05:00:08.000Z,284.42
2023-03-26T05:01:10.571Z,284.42
2023-03-26T05:02:08.034Z,283.19
2023-03-26T05:03:08.106Z,283.19
2023-03-26T05:04:08.072Z,283.19
2023-03-26T05:05:08.114Z,282.70
2023-03-26T05:06:08.153Z,284.42
2023-03-26T05:07:07.971Z,281.97
2023-03-26T05:08:07.933Z,281.01
2023-03-26T05:09:08.006Z,283.68
2023-03-26T05:10:07.964Z,281.49
2023-03-26T05:11:07.956Z,281.73
2023-03-26T05:12:07.968Z,282.94
2023-03-26T05:13:07.933Z,282.94
2023-03-26T05:14:07.926Z,281.01
2023-03-26T05:15:07.859Z,281.01
2023-03-26T05:16:08.010Z,282.46
2023-03-26T05:17:07.879Z,281.25
2023-03-26T05:18:07.847Z,281.01
2023-03-26T05:19:07.828Z,280.05
2023-03-26T05:20:07.847Z,281.97
2023-03-26T05:21:07.824Z,281.73
2023-03-26T05:22:07.808Z,281.49
2023-03-26T05:23:07.830Z,281.01
2023-03-26T05:24:07.762Z,280.29
2023-03-26T05:25:07.804Z,280.76
2023-03-26T05:26:07.764Z,279.81
2023-03-26T05:27:07.901Z,281.97
2023-03-26T05:28:07.786Z,280.52
2023-03-26T05:29:07.815Z,281.97
2023-03-26T05:30:07.684Z,280.29
2023-03-26T05:31:07.683Z,280.29
2023-03-26T05:32:07.727Z,281.97
2023-03-26T05:33:07.730Z,280.05
2023-03-26T05:34:07.716Z,279.09
2023-03-26T05:35:07.667Z,279.33
2023-03-26T05:36:07.692Z,278.62
2023-03-26T05:37:07.696Z,277.67
2023-03-26T05:38:07.636Z,278.15
2023-03-26T05:39:07.602Z,279.57
2023-03-26T05:40:07.614Z,278.15
2023-03-26T05:41:07.577Z,279.33
2023-03-26T05:42:07.571Z,278.38
2023-03-26T05:43:07.640Z,276.97
2023-03-26T05:44:07.677Z,277.21
2023-03-26T05:45:07.576Z,276.97
2023-03-26T05:46:07.639Z,275.35
2023-03-26T05:47:07.560Z,276.74
2023-03-26T05:48:07.587Z,277.67
2023-03-26T05:49:07.505Z,276.97
2023-03-26T05:50:07.524Z,278.15
2023-03-26T05:51:07.432Z,276.51
2023-03-26T05:52:07.498Z,277.21
2023-03-26T05:53:07.427Z,275.35
2023-03-26T05:54:07.488Z,275.81
2023-03-26T05:55:07.417Z,277.21
2023-03-26T05:56:07.403Z,278.62
2023-03-26T05:57:07.411Z,276.27
2023-03-26T05:58:07.389Z,277.21
2023-03-26T05:59:07.387Z,275.35
2023-03-26T06:00:07.377Z,276.74
2023-03-26T06:01:07.332Z,275.81
2023-03-26T06:02:07.356Z,273.97
2023-03-26T06:03:07.534Z,276.74
2023-03-26T06:04:07.388Z,273.97
2023-03-26T06:05:07.363Z,274.42
2023-03-26T06:06:07.292Z,272.37
2023-03-26T06:07:07.249Z,274.65
2023-03-26T06:08:07.301Z,275.11
2023-03-26T06:09:07.256Z,274.20
2023-03-26T06:10:07.241Z,272.83
2023-03-26T06:11:07.300Z,273.74
2023-03-26T06:12:07.214Z,274.20
2023-03-26T06:13:07.197Z,270.35
2023-03-26T06:14:07.260Z,273.74
2023-03-26T06:15:07.236Z,273.51
2023-03-26T06:16:07.273Z,270.58
2023-03-26T06:17:07.188Z,269.69
2023-03-26T06:18:07.207Z,268.14
2023-03-26T06:19:07.163Z,272.37
2023-03-26T06:20:09.263Z,271.02
2023-03-26T06:21:07.129Z,269.91
2023-03-26T06:22:07.088Z,270.13
2023-03-26T06:23:07.085Z,269.47
2023-03-26T06:24:07.107Z,269.24
2023-03-26T06:25:07.060Z,269.02
2023-03-26T06:26:07.137Z,268.36
2023-03-26T06:27:07.101Z,268.36
2023-03-26T06:28:07.171Z,268.80
2023-03-26T06:29:07.020Z,269.02
2023-03-26T06:30:07.027Z,265.54
2023-03-26T06:31:07.022Z,267.27
2023-03-26T06:32:18.525Z,266.84
2023-03-26T06:33:08.007Z,267.49
2023-03-26T06:34:07.003Z,266.40
2023-03-26T06:35:06.992Z,264.90
2023-03-26T06:36:07.119Z,265.11
2023-03-26T06:37:07.010Z,264.90
2023-03-26T06:38:06.932Z,266.40
2023-03-26T06:39:07.543Z,265.97
2023-03-26T06:40:06.927Z,265.11
2023-03-26T06:41:06.908Z,265.97
2023-03-26T06:42:06.906Z,266.19
2023-03-26T06:43:10.601Z,265.11
2023-03-26T06:44:06.883Z,262.78
2023-03-26T06:45:06.881Z,265.11
2023-03-26T06:46:06.908Z,262.78
2023-03-26T06:47:06.840Z,261.31
2023-03-26T06:48:06.877Z,263.62
2023-03-26T06:49:06.791Z,261.31
2023-03-26T06:50:06.876Z,262.15
2023-03-26T06:51:06.805Z,258.43
2023-03-26T06:52:06.800Z,257.42
2023-03-26T06:53:06.784Z,257.62
2023-03-26T06:54:06.800Z,258.43
2023-03-26T06:55:06.754Z,257.62
2023-03-26T06:56:09.033Z,255.21
2023-03-26T06:57:07.087Z,255.61
2023-03-26T06:58:06.767Z,253.24
2023-03-26T06:59:06.889Z,251.69
2023-03-26T07:00:06.734Z,251.11
2023-03-26T07:01:06.803Z,253.44
2023-03-26T07:02:06.757Z,252.27
2023-03-26T07:03:06.702Z,253.05
2023-03-26T07:04:06.844Z,252.66
2023-03-26T07:05:06.705Z,252.85
2023-03-26T07:06:06.936Z,254.23
2023-03-26T07:08:38.647Z,289.94
2023-03-26T07:10:57.565Z,305.89
2023-03-26T07:11:57.360Z,290.71
2023-03-26T07:13:08.133Z,285.65
2023-03-26T07:13:57.673Z,280.05
2023-03-26T07:14:58.415Z,277.44
2023-03-26T07:15:56.877Z,274.20
2023-03-26T07:16:56.966Z,272.15
2023-03-26T07:17:57.008Z,271.92
2023-03-26T07:18:56.796Z,270.35
2023-03-26T07:19:57.088Z,270.80
2023-03-26T07:21:07.201Z,270.13
2023-03-26T07:22:04.353Z,270.35
2023-03-26T07:23:14.869Z,269.24
2023-03-26T07:32:06.522Z,312.00
2023-03-26T07:33:06.510Z,294.89
2023-03-26T07:34:05.953Z,288.16
2023-03-26T07:35:05.122Z,282.46
2023-03-26T07:36:06.624Z,277.67
2023-03-26T07:38:23.605Z,305.61
2023-03-26T07:39:23.598Z,294.37
2023-03-26T07:40:25.325Z,284.91
2023-03-26T07:41:23.235Z,278.86
2023-03-26T07:42:23.577Z,277.21
2023-03-26T07:43:23.180Z,274.42
2023-03-26T07:44:23.493Z,272.60
2023-03-26T07:45:23.257Z,272.15
2023-03-26T07:46:23.249Z,270.13
2023-03-26T07:47:23.283Z,270.35
2023-03-26T07:48:23.271Z,269.47
2023-03-26T07:49:23.170Z,270.80
2023-03-26T07:50:23.186Z,270.13
2023-03-26T07:51:23.114Z,269.91
2023-03-26T07:52:23.145Z,268.58
2023-03-26T07:53:23.169Z,269.47
2023-03-26T07:54:23.088Z,268.36
2023-03-26T07:55:23.168Z,267.49
2023-03-26T07:56:23.248Z,267.93
2023-03-26T07:57:23.169Z,267.71
2023-03-26T07:58:23.014Z,268.36
2023-03-26T07:59:23.608Z,267.49
2023-03-26T08:00:22.981Z,266.62
2023-03-26T08:01:23.031Z,267.05
2023-03-26T08:02:23.042Z,267.05
2023-03-26T08:03:23.093Z,265.97
2023-03-26T08:04:25.640Z,264.26
2023-03-26T08:05:22.933Z,265.54
2023-03-26T08:06:22.964Z,263.83
2023-03-26T08:07:22.886Z,264.26
2023-03-26T08:08:23.661Z,262.57
2023-03-26T08:09:22.962Z,262.15
2023-03-26T08:10:22.902Z,261.10
2023-03-26T08:11:22.901Z,260.48
2023-03-26T08:12:22.962Z,258.23
2023-03-26T08:13:22.812Z,257.82
2023-03-26T08:14:22.774Z,258.43
2023-03-26T08:15:22.766Z,257.21
2023-03-26T08:16:22.821Z,257.62
2023-03-26T08:17:22.776Z,256.21
2023-03-26T08:18:22.787Z,255.81
2023-03-26T08:19:22.709Z,256.81
2023-03-26T08:20:22.750Z,256.81
2023-03-26T08:21:22.698Z,254.03
2023-03-26T08:22:22.679Z,256.61
2023-03-26T08:23:22.692Z,253.83
2023-03-26T08:24:22.668Z,257.21
2023-03-26T08:25:22.634Z,256.01
2023-03-26T08:26:22.753Z,256.21
2023-03-26T08:27:22.682Z,256.01
2023-03-26T08:28:22.730Z,256.81
2023-03-26T08:29:22.709Z,256.61
2023-03-26T08:30:22.870Z,257.01
2023-03-26T08:31:22.938Z,255.61
2023-03-26T08:32:22.710Z,255.81
2023-03-26T08:33:22.619Z,255.61
2023-03-26T08:34:22.637Z,255.21
2023-03-26T08:35:22.724Z,253.83
2023-03-26T08:36:22.545Z,257.01
2023-03-26T08:37:22.494Z,261.31
2023-03-26T08:38:22.516Z,265.33
2023-03-26T08:39:22.485Z,269.24
2023-03-26T08:40:22.470Z,273.51
2023-03-26T08:41:22.497Z,274.42
2023-03-26T08:42:22.497Z,274.88
2023-03-26T08:43:22.543Z,276.74
2023-03-26T08:44:22.447Z,276.27
2023-03-26T08:45:22.452Z,275.58
2023-03-26T08:46:22.496Z,274.65
2023-03-26T08:47:22.488Z,273.51
2023-03-26T08:48:22.443Z,275.11
2023-03-26T08:49:24.898Z,273.51
2023-03-26T08:50:22.386Z,273.74
2023-03-26T08:51:22.437Z,271.92
2023-03-26T08:52:22.337Z,271.47
2023-03-26T08:53:22.362Z,272.60
2023-03-26T08:54:22.412Z,270.35
2023-03-26T08:55:22.427Z,269.91
2023-03-26T08:56:22.391Z,271.25
2023-03-26T08:57:22.450Z,269.91
2023-03-26T08:58:22.329Z,269.69
2023-03-26T08:59:22.293Z,269.91
2023-03-26T09:00:22.309Z,266.19
2023-03-26T09:01:22.306Z,266.40
2023-03-26T09:02:22.263Z,264.90
2023-03-26T09:03:22.252Z,266.62
2023-03-26T09:04:22.345Z,264.26
2023-03-26T09:05:22.280Z,264.47
2023-03-26T09:06:24.749Z,263.41
2023-03-26T09:07:22.332Z,262.36
2023-03-26T09:08:22.231Z,264.26
2023-03-26T09:09:22.209Z,265.11
2023-03-26T09:10:22.196Z,263.41
2023-03-26T09:11:22.204Z,263.62
2023-03-26T09:12:23.751Z,263.83
2023-03-26T09:13:22.109Z,262.99
2023-03-26T09:14:22.237Z,261.94
2023-03-26T09:15:22.110Z,261.73
2023-03-26T09:16:22.190Z,262.36
2023-03-26T09:17:22.117Z,264.47
2023-03-26T09:18:22.184Z,265.54
2023-03-26T09:19:22.103Z,262.78
2023-03-26T09:20:22.104Z,262.78
2023-03-26T09:21:22.064Z,262.57
2023-03-26T09:22:22.116Z,261.10
2023-03-26T09:23:22.056Z,260.69
2023-03-26T09:24:22.188Z,262.15
2023-03-26T09:25:22.004Z,261.73
2023-03-26T09:26:21.980Z,261.10
2023-03-26T09:27:21.968Z,260.27
2023-03-26T09:28:21.998Z,258.63
2023-03-26T09:29:21.946Z,258.02
2023-03-26T09:30:21.978Z,256.41
2023-03-26T09:31:22.051Z,257.42
2023-03-26T09:32:21.952Z,256.21
2023-03-26T09:33:21.937Z,257.21
2023-03-26T09:34:22.018Z,257.62
2023-03-26T09:35:21.930Z,255.61
2023-03-26T09:36:21.967Z,255.61
2023-03-26T09:37:21.856Z,254.03
2023-03-26T09:38:21.940Z,253.05
2023-03-26T09:39:21.894Z,251.69
2023-03-26T09:40:21.849Z,252.27
2023-03-26T09:41:21.827Z,251.50
2023-03-26T09:42:22.055Z,250.92
2023-03-26T09:43:21.797Z,250.54
2023-03-26T09:44:21.822Z,248.64
2023-03-26T09:45:21.856Z,249.39
2023-03-26T09:46:21.854Z,249.77
2023-03-26T09:47:21.784Z,248.83
2023-03-26T09:48:21.740Z,248.83
2023-03-26T09:49:21.734Z,249.01
2023-03-26T09:50:21.953Z,248.83
2023-03-26T09:51:21.792Z,247.14
2023-03-26T09:52:21.783Z,248.64
2023-03-26T09:53:21.690Z,246.77
2023-03-26T09:54:21.730Z,246.95
2023-03-26T09:55:21.676Z,245.11
2023-03-26T09:56:21.694Z,244.56
2023-03-26T09:57:21.798Z,245.48
2023-03-26T09:58:21.725Z,244.93
2023-03-26T09:59:21.706Z,245.66
2023-03-26T10:00:21.671Z,246.77
2023-03-26T10:01:21.649Z,245.66
2023-03-26T10:02:21.677Z,247.14
2023-03-26T10:03:21.654Z,246.58
2023-03-26T10:04:21.627Z,245.84
2023-03-26T10:05:21.592Z,245.66
2023-03-26T10:06:21.607Z,246.40
2023-03-26T10:07:21.593Z,245.29
2023-03-26T10:08:21.581Z,244.20
2023-03-26T10:09:21.942Z,244.20
2023-03-26T10:10:29.025Z,246.77
2023-03-26T10:13:30.421Z,278.62
2023-03-26T10:14:30.390Z,267.71
2023-03-26T10:15:30.422Z,262.57
2023-03-26T10:16:30.824Z,258.84
2023-03-26T10:17:30.451Z,257.42
2023-03-26T10:18:30.765Z,255.01
2023-03-26T10:19:30.356Z,254.03
2023-03-26T10:20:30.402Z,253.63
2023-03-26T10:21:30.397Z,253.24
2023-03-26T10:22:30.365Z,253.24
2023-03-26T10:23:30.320Z,254.03
2023-03-26T10:24:30.315Z,253.63
2023-03-26T10:25:30.332Z,252.27
2023-03-26T10:26:37.429Z,253.24
2023-03-26T10:27:30.273Z,256.01
2023-03-26T10:28:30.240Z,257.62
2023-03-26T10:29:30.257Z,259.66
2023-03-26T10:30:30.356Z,259.25
2023-03-26T10:31:30.313Z,259.86
2023-03-26T10:32:30.224Z,258.02
2023-03-26T10:33:30.200Z,257.21
2023-03-26T10:34:30.161Z,257.01
2023-03-26T10:35:30.230Z,256.81
2023-03-26T10:36:30.174Z,258.63
2023-03-26T10:37:30.173Z,255.81
2023-03-26T10:38:30.147Z,256.41
2023-03-26T10:39:37.379Z,256.21
2023-03-26T10:40:31.174Z,258.43
2023-03-26T10:41:30.087Z,257.21
2023-03-26T10:42:30.106Z,258.84
2023-03-26T10:43:30.077Z,258.43
2023-03-26T10:44:30.263Z,259.86
2023-03-26T10:45:30.109Z,258.63
2023-03-26T10:46:30.084Z,260.89
2023-03-26T10:47:30.124Z,263.41
2023-03-26T10:48:30.038Z,264.26
2023-03-26T10:49:30.092Z,264.26
2023-03-26T10:50:30.064Z,262.99
2023-03-26T10:51:30.040Z,262.15
2023-03-26T10:52:30.037Z,262.15
2023-03-26T10:53:30.048Z,262.15
2023-03-26T10:54:29.982Z,260.89
2023-03-26T10:55:29.977Z,262.78
2023-03-26T10:56:30.058Z,263.83
2023-03-26T10:57:29.951Z,266.19
2023-03-26T10:58:46.102Z,267.93
2023-03-26T10:59:30.924Z,267.27
2023-03-26T11:00:29.904Z,269.24
2023-03-26T11:01:30.057Z,269.69
2023-03-26T11:02:30.357Z,269.91
2023-03-26T11:03:29.886Z,268.14
2023-03-26T11:04:29.888Z,270.13
2023-03-26T11:05:29.881Z,270.80
2023-03-26T11:06:29.843Z,270.13
2023-03-26T11:07:29.906Z,272.37
2023-03-26T11:08:31.036Z,274.65
2023-03-26T11:09:29.949Z,276.27
2023-03-26T11:10:37.319Z,277.67
2023-03-26T11:11:37.266Z,276.51
2023-03-26T11:12:29.784Z,278.38
2023-03-26T11:13:36.818Z,277.67
2023-03-26T11:14:37.265Z,276.04
2023-03-26T11:15:38.270Z,278.86
2023-03-26T11:16:37.211Z,278.38
2023-03-26T11:17:40.721Z,279.09
2023-03-26T11:18:38.509Z,279.81
2023-03-26T11:19:38.619Z,284.17
2023-03-26T11:20:36.795Z,285.16
2023-03-26T11:21:37.239Z,286.15
2023-03-26T11:22:37.152Z,285.16
2023-03-26T11:23:29.626Z,284.91
2023-03-26T11:24:29.641Z,284.42
2023-03-26T11:25:29.602Z,283.19
2023-03-26T11:26:29.590Z,288.67
2023-03-26T11:27:29.654Z,288.42
2023-03-26T11:28:29.574Z,287.40
2023-03-26T11:29:31.240Z,289.43
2023-03-26T11:30:29.560Z,288.67
2023-03-26T11:31:29.592Z,287.40
2023-03-26T11:32:29.543Z,292.53
2023-03-26T11:33:32.756Z,300.02
2023-03-26T11:34:29.524Z,303.91
2023-03-26T11:35:40.525Z,310.82
2023-03-26T11:36:30.540Z,312.89
2023-03-26T11:37:29.486Z,311.70
2023-03-26T11:38:29.468Z,311.11
2023-03-26T11:39:29.644Z,312.89
2023-03-26T11:40:29.505Z,311.70
2023-03-26T11:41:29.457Z,312.00
2023-03-26T11:42:29.430Z,311.41
2023-03-26T11:43:29.418Z,308.77
2023-03-26T11:44:29.397Z,310.82
2023-03-26T11:45:29.680Z,312.00
2023-03-26T11:46:30.042Z,315.00
2023-03-26T11:47:29.472Z,317.43
2023-03-26T11:48:29.356Z,315.00
2023-03-26T11:49:29.409Z,318.05
2023-03-26T11:50:29.335Z,321.48
2023-03-26T11:51:29.381Z,322.42
2023-03-26T11:52:29.367Z,323.06
2023-03-26T11:53:29.354Z,322.74
2023-03-26T11:54:29.278Z,321.79
2023-03-26T11:55:29.326Z,321.79
2023-03-26T11:56:29.261Z,322.11
2023-03-26T11:57:29.279Z,322.74
2023-03-26T11:58:29.241Z,325.62
2023-03-26T11:59:29.299Z,328.56
2023-03-26T12:00:29.270Z,330.21
2023-03-26T12:01:29.222Z,332.22
2023-03-26T12:02:29.807Z,332.22
2023-03-26T12:03:29.264Z,332.89
2023-03-26T12:04:31.760Z,334.59
2023-03-26T12:05:29.240Z,334.59
2023-03-26T12:06:29.218Z,338.39
2023-03-26T12:07:29.157Z,340.49
2023-03-26T12:08:29.131Z,340.85
2023-03-26T12:09:29.163Z,343.34
2023-03-26T12:10:29.114Z,344.06
2023-03-26T12:11:29.120Z,348.08
2023-03-26T12:12:29.106Z,349.19
2023-03-26T12:13:29.093Z,351.06
2023-03-26T12:14:29.118Z,352.95
2023-03-26T12:15:29.051Z,352.95
2023-03-26T12:16:29.104Z,351.81
2023-03-26T12:17:31.470Z,354.09
2023-03-26T12:18:29.111Z,352.57
2023-03-26T12:19:29.092Z,356.39
2023-03-26T12:20:29.022Z,356.78
2023-03-26T12:21:29.141Z,357.56
2023-03-26T12:22:28.994Z,353.71
2023-03-26T12:23:28.983Z,358.73
2023-03-26T12:24:28.951Z,358.73
2023-03-26T12:25:28.946Z,360.31
2023-03-26T12:26:28.997Z,360.70
2023-03-26T12:27:28.939Z,358.73
2023-03-26T12:28:28.957Z,357.17
2023-03-26T12:29:29.014Z,359.52
2023-03-26T12:30:28.911Z,357.95
2023-03-26T12:31:28.988Z,361.50
2023-03-26T12:32:42.944Z,358.34
2023-03-26T12:33:29.922Z,356.78
2023-03-26T12:34:28.909Z,356.78
2023-03-26T12:35:28.845Z,354.47
2023-03-26T12:36:28.861Z,353.71
2023-03-26T12:37:28.875Z,352.95
2023-03-26T12:38:28.921Z,354.85
2023-03-26T12:40:08.733Z,351.81
2023-03-26T12:40:29.861Z,352.19
2023-03-26T12:43:51.591Z,348.08
2023-03-26T12:44:47.105Z,348.82